Time;durP1;ratioP1;P1;durP2;ratioP2;P2;SDS_P1;SDS_P2;PMS_P1;PMS_P2;Temp;Humidity;BMP_temperature;BMP_pressure;BME280_temperature;BME280_humidity;BME280_pressure;Samples;Min_cycle;Max_cycle;Signal;HPM_P1;HPM_P2
2022/07/14 00:00:40;;;;;;;5.70;3.10;;;;;;;20.44;62.14;100119.96;108085;1270;22740;-77
2022/07/14 00:03:07;;;;;;;3.20;2.80;;;;;;;20.41;62.12;100111.95;109179;1270;22519;-78
2022/07/14 00:05:35;;;;;;;4.10;3.20;;;;;;;20.40;62.31;100114.99;109158;1270;22592;-78
2022/07/14 00:08:03;;;;;;;4.90;3.60;;;;;;;20.39;62.45;100110.55;109624;1271;22540;-78
2022/07/14 00:10:30;;;;;;;7.70;3.50;;;;;;;20.39;62.46;100108.60;109544;1271;22562;-78
2022/07/14 00:12:57;;;;;;;4.80;3.60;;;;;;;20.38;62.50;100104.20;109695;1270;22619;-78
2022/07/14 00:15:24;;;;;;;4.00;3.60;;;;;;;20.36;62.56;100100.92;109158;1270;22621;-78
2022/07/14 00:17:51;;;;;;;5.40;3.50;;;;;;;20.32;62.55;100095.06;107238;1271;25355;-78
2022/07/14 00:20:18;;;;;;;4.70;3.30;;;;;;;20.28;62.66;100097.60;106216;1273;25673;-77
2022/07/14 00:22:45;;;;;;;4.20;3.30;;;;;;;20.23;62.82;100098.91;106404;1271;24331;-84
2022/07/14 00:25:12;;;;;;;9.00;4.30;;;;;;;20.20;62.89;100102.52;106170;1272;22547;-79
2022/07/14 00:27:40;;;;;;;7.40;3.50;;;;;;;20.16;62.99;100104.86;106124;1271;24215;-79
2022/07/14 00:30:08;;;;;;;8.40;3.50;;;;;;;20.12;63.07;100109.90;106174;1271;22702;-77
2022/07/14 00:32:35;;;;;;;6.20;3.60;;;;;;;20.09;63.18;100106.82;106154;1274;25262;-78
2022/07/14 00:35:05;;;;;;;4.80;3.60;;;;;;;20.03;63.39;100104.60;106320;1271;26521;-80
2022/07/14 00:37:32;;;;;;;4.80;3.70;;;;;;;19.99;63.57;100096.25;106207;1273;25371;-83
2022/07/14 00:40:01;;;;;;;5.50;3.90;;;;;;;19.94;63.62;100096.31;106259;1271;24293;-82
2022/07/14 00:42:36;;;;;;;5.30;4.00;;;;;;;19.91;63.78;100097.21;106225;1274;22563;-82
2022/07/14 00:45:13;;;;;;;8.60;3.90;;;;;;;19.87;63.93;100094.02;106376;1271;25430;-82
2022/07/14 00:47:41;;;;;;;5.10;3.50;;;;;;;19.81;64.04;100089.30;106401;1271;25357;-81
2022/07/14 00:50:11;;;;;;;7.60;4.00;;;;;;;19.78;64.17;100088.77;106889;1271;24224;-78
2022/07/14 00:52:41;;;;;;;4.50;3.30;;;;;;;19.70;64.25;100079.19;106542;1271;23380;-78
2022/07/14 00:55:09;;;;;;;8.40;3.80;;;;;;;19.71;64.41;100088.07;106927;1271;25249;-78
2022/07/14 00:57:37;;;;;;;5.70;4.20;;;;;;;19.68;64.54;100083.73;106450;1271;23577;-84
2022/07/14 01:00:07;;;;;;;5.10;4.20;;;;;;;19.67;64.56;100091.12;106243;1271;26523;-76
2022/07/14 01:02:34;;;;;;;7.30;4.70;;;;;;;19.64;64.74;100094.83;106723;1270;22707;-79
2022/07/14 01:05:03;;;;;;;12.30;4.50;;;;;;;19.63;64.88;100102.23;106839;1271;22546;-76
2022/07/14 01:07:30;;;;;;;5.30;4.10;;;;;;;19.60;65.04;100099.70;106587;1271;25246;-78
2022/07/14 01:09:57;;;;;;;4.70;4.20;;;;;;;19.56;65.05;100103.83;106278;1271;22732;-82
2022/07/14 01:12:24;;;;;;;8.10;4.20;;;;;;;19.51;65.26;100105.88;106429;1270;24233;-79
2022/07/14 01:14:54;;;;;;;5.70;4.00;;;;;;;19.47;65.41;100101.96;106305;1271;22552;-81
2022/07/14 01:17:21;;;;;;;5.40;4.10;;;;;;;19.44;65.44;100100.13;106259;1270;24246;-79
2022/07/14 01:19:49;;;;;;;5.60;4.20;;;;;;;19.40;65.58;100105.33;106199;1271;24363;-79
2022/07/14 01:22:17;;;;;;;6.50;4.30;;;;;;;19.31;65.71;100104.70;106086;1271;22557;-81
2022/07/14 01:24:45;;;;;;;8.30;4.30;;;;;;;19.29;65.88;100108.40;106087;1274;22528;-81
2022/07/14 01:27:12;;;;;;;7.00;4.50;;;;;;;19.26;66.09;100105.86;106074;1273;22557;-79
2022/07/14 01:29:38;;;;;;;7.80;5.00;;;;;;;19.23;66.18;100101.02;106305;1271;25252;-80
2022/07/14 01:32:07;;;;;;;6.60;4.60;;;;;;;19.19;66.31;100099.57;106156;1276;22689;-78
2022/07/14 01:34:34;;;;;;;7.80;4.30;;;;;;;19.15;66.52;100098.74;106132;1271;25338;-79
2022/07/14 01:37:01;;;;;;;5.80;4.80;;;;;;;19.06;66.75;100090.61;106254;1271;22534;-79
2022/07/14 01:39:28;;;;;;;8.40;4.90;;;;;;;19.06;66.81;100096.11;106160;1271;24275;-80
2022/07/14 01:41:55;;;;;;;6.00;4.20;;;;;;;19.02;66.89;100094.13;106162;1274;22789;-80
2022/07/14 01:44:22;;;;;;;6.70;5.00;;;;;;;18.98;67.02;100090.21;106284;1272;24375;-78
2022/07/14 01:46:49;;;;;;;8.20;4.50;;;;;;;18.97;67.13;100091.70;106202;1272;22619;-79
2022/07/14 01:49:17;;;;;;;4.70;3.60;;;;;;;18.95;67.06;100092.52;106104;1271;24769;-79
2022/07/14 01:51:44;;;;;;;4.90;4.40;;;;;;;18.94;67.12;100097.54;105995;1273;25528;-80
2022/07/14 01:54:11;;;;;;;6.40;4.70;;;;;;;18.94;67.08;100094.69;106365;1271;22531;-79
2022/07/14 01:56:40;;;;;;;6.80;5.20;;;;;;;18.96;67.07;100096.06;106347;1271;22630;-79
2022/07/14 01:59:09;;;;;;;6.30;4.70;;;;;;;18.92;67.14;100095.33;106121;1271;25339;-76
2022/07/14 02:01:40;;;;;;;5.90;4.50;;;;;;;18.87;67.23;100092.17;106331;1271;22525;-81
2022/07/14 02:04:12;;;;;;;8.60;4.40;;;;;;;18.86;67.34;100099.58;106285;1271;22606;-80
2022/07/14 02:06:42;;;;;;;7.60;5.10;;;;;;;18.83;67.27;100101.84;106625;1270;22538;-77
2022/07/14 02:09:12;;;;;;;5.30;4.50;;;;;;;18.81;67.47;100102.83;106256;1271;22538;-79
2022/07/14 02:14:26;;;;;;;8.30;5.10;;;;;;;18.79;67.55;100106.15;106362;1271;25359;-77
2022/07/14 02:16:54;;;;;;;5.00;4.40;;;;;;;18.74;67.57;100101.02;106207;1271;24786;-75
2022/07/14 02:19:24;;;;;;;7.80;4.30;;;;;;;18.67;67.60;100101.02;106211;1271;23947;-77
2022/07/14 02:21:53;;;;;;;6.30;4.40;;;;;;;18.65;67.84;100105.21;106291;1271;22675;-79
2022/07/14 02:24:22;;;;;;;5.90;4.30;;;;;;;18.64;67.77;100102.77;106296;1271;24422;-79
2022/07/14 02:26:50;;;;;;;8.40;4.50;;;;;;;18.58;67.91;100103.20;106513;1271;25721;-77
2022/07/14 02:29:19;;;;;;;6.50;4.80;;;;;;;18.57;68.08;100108.59;106497;1277;24275;-75
2022/07/14 02:31:46;;;;;;;5.70;4.40;;;;;;;18.56;68.08;100112.56;106873;1280;24138;-76
2022/07/14 02:34:15;;;;;;;7.10;4.80;;;;;;;18.52;68.20;100117.75;105980;1277;24334;-78
2022/07/14 02:36:42;;;;;;;5.20;4.30;;;;;;;18.49;68.29;100112.55;105922;1277;22687;-76
2022/07/14 02:39:10;;;;;;;6.20;4.70;;;;;;;18.45;68.34;100111.08;106540;1276;22626;-78
2022/07/14 02:41:37;;;;;;;5.70;4.40;;;;;;;18.43;68.37;100106.35;106593;1277;24054;-74
2022/07/14 02:44:05;;;;;;;5.50;4.80;;;;;;;18.40;68.46;100099.41;105985;1276;22647;-77
2022/07/14 02:46:33;;;;;;;5.20;4.40;;;;;;;18.40;68.54;100105.79;106074;1271;22983;-76
2022/07/14 02:49:00;;;;;;;7.30;5.10;;;;;;;18.38;68.56;100108.20;106301;1270;22850;-79
2022/07/14 02:51:29;;;;;;;5.90;4.60;;;;;;;18.38;68.67;100110.73;106508;1271;24473;-77
2022/07/14 02:53:56;;;;;;;7.60;4.50;;;;;;;18.40;68.64;100110.08;106552;1271;22551;-82
2022/07/14 02:56:23;;;;;;;6.20;5.00;;;;;;;18.43;68.76;100109.77;106209;1277;22826;-83
2022/07/14 02:58:50;;;;;;;7.50;4.50;;;;;;;18.43;68.58;100109.94;105755;1285;22571;-81
2022/07/14 03:01:17;;;;;;;5.90;5.20;;;;;;;18.43;68.45;100109.59;106088;1287;22549;-81
2022/07/14 03:03:45;;;;;;;8.50;5.10;;;;;;;18.41;68.62;100111.09;105963;1287;22607;-78
2022/07/14 03:06:17;;;;;;;9.00;5.10;;;;;;;18.37;68.72;100113.60;106040;1287;22612;-83
2022/07/14 03:08:48;;;;;;;5.30;4.30;;;;;;;18.37;68.61;100119.52;106420;1287;22819;-81
2022/07/14 03:11:15;;;;;;;6.90;4.80;;;;;;;18.35;68.60;100116.20;107811;1287;23453;-83
2022/07/14 03:13:42;;;;;;;5.60;4.50;;;;;;;18.34;68.82;100106.79;107868;1286;22658;-82
2022/07/14 03:16:10;;;;;;;5.60;4.70;;;;;;;18.31;68.76;100108.34;108610;1278;22597;-83
2022/07/14 03:18:47;;;;;;;7.30;4.40;;;;;;;18.33;68.87;100114.30;109506;1271;22595;-83
2022/07/14 03:21:14;;;;;;;5.80;4.60;;;;;;;18.35;68.83;100122.80;109609;1271;22818;-82
2022/07/14 03:23:45;;;;;;;6.60;4.20;;;;;;;18.36;68.95;100131.15;108985;1271;23158;-81
2022/07/14 03:26:16;;;;;;;9.20;5.50;;;;;;;18.37;68.87;100136.42;107212;1271;24751;-81
2022/07/14 03:28:43;;;;;;;5.90;4.60;;;;;;;18.32;68.83;100127.20;106283;1271;22559;-76
2022/07/14 03:31:10;;;;;;;7.60;4.70;;;;;;;18.31;68.98;100130.64;106209;1274;22531;-78
2022/07/14 03:33:38;;;;;;;4.50;4.00;;;;;;;18.35;68.99;100133.51;106248;1271;26505;-82
2022/07/14 03:36:06;;;;;;;5.80;4.60;;;;;;;18.31;68.94;100135.98;106325;1271;22699;-81
2022/07/14 03:38:34;;;;;;;5.10;4.60;;;;;;;18.27;69.03;100139.55;106246;1271;22859;-79
2022/07/14 03:41:05;;;;;;;8.40;4.50;;;;;;;18.23;69.10;100137.06;106228;1273;23095;-78
2022/07/14 03:43:34;;;;;;;7.60;4.70;;;;;;;18.22;69.11;100134.26;106379;1271;22550;-78
2022/07/14 03:46:02;;;;;;;6.60;5.10;;;;;;;18.23;69.24;100138.83;106344;1271;22611;-81
2022/07/14 03:48:32;;;;;;;6.40;4.40;;;;;;;18.24;69.19;100141.11;106209;1271;24243;-81
2022/07/14 03:51:01;;;;;;;5.90;4.60;;;;;;;18.25;69.16;100139.81;106226;1271;24893;-81
2022/07/14 03:53:30;;;;;;;4.70;4.20;;;;;;;18.26;69.21;100137.61;106364;1271;22528;-81
2022/07/14 03:55:59;;;;;;;5.80;4.60;;;;;;;18.28;69.28;100136.48;106315;1271;22538;-81
2022/07/14 03:58:28;;;;;;;7.10;4.30;;;;;;;18.29;69.13;100136.59;106124;1271;22771;-80
2022/07/14 04:00:55;;;;;;;7.00;5.30;;;;;;;18.25;69.17;100130.01;106067;1274;25529;-80
2022/07/14 04:03:22;;;;;;;5.10;4.60;;;;;;;18.32;69.13;100139.70;106264;1271;22842;-80
2022/07/14 04:05:51;;;;;;;10.50;4.90;;;;;;;18.30;69.09;100138.14;106155;1271;22480;-82
2022/07/14 04:08:18;;;;;;;5.90;4.50;;;;;;;18.31;69.02;100139.88;106489;1271;22856;-85
2022/07/14 04:10:50;;;;;;;7.60;5.30;;;;;;;18.29;69.17;100145.35;106503;1271;22531;-86
2022/07/14 04:13:17;;;;;;;7.20;4.20;;;;;;;18.30;69.21;100140.48;106091;1272;23489;-82
2022/07/14 04:15:43;;;;;;;6.60;5.40;;;;;;;18.29;69.09;100139.78;106437;1271;23178;-86
2022/07/14 04:18:13;;;;;;;5.10;4.70;;;;;;;18.27;69.20;100134.37;106471;1272;22542;-84
2022/07/14 04:20:47;;;;;;;6.40;4.80;;;;;;;18.26;69.12;100138.19;106352;1271;24265;-79
2022/07/14 04:23:14;;;;;;;5.80;4.50;;;;;;;18.25;69.23;100133.22;106312;1274;22595;-81
2022/07/14 04:25:42;;;;;;;6.70;4.20;;;;;;;18.25;69.34;100133.23;106113;1272;22554;-81
2022/07/14 04:28:09;;;;;;;8.90;5.10;;;;;;;18.27;69.26;100136.15;106174;1271;22543;-80
2022/07/14 04:30:36;;;;;;;5.90;4.70;;;;;;;18.30;69.21;100135.29;105864;1274;22730;-81
2022/07/14 04:33:09;;;;;;;6.40;4.00;;;;;;;18.35;69.11;100135.98;106285;1271;22531;-83
2022/07/14 04:35:37;;;;;;;6.10;4.40;;;;;;;18.38;69.08;100131.59;106410;1274;25254;-81
2022/07/14 04:38:05;;;;;;;10.80;4.80;;;;;;;18.39;68.96;100133.30;106204;1274;22696;-77
2022/07/14 04:40:50;;;;;;;7.30;4.60;;;;;;;18.44;68.92;100132.17;106208;1271;24965;-77
2022/07/14 04:43:18;;;;;;;6.00;4.30;;;;;;;18.49;68.96;100133.03;106324;1271;24240;-79
2022/07/14 04:45:47;;;;;;;5.00;4.50;;;;;;;18.52;68.84;100133.80;106130;1272;22597;-80
2022/07/14 04:48:14;;;;;;;7.00;4.70;;;;;;;18.55;68.74;100132.76;106308;1271;22555;-85
2022/07/14 04:53:28;;;;;;;5.20;4.30;;;;;;;18.61;68.71;100131.44;106381;1271;26585;-76
2022/07/14 04:56:18;;;;;;;5.80;4.00;;;;;;;18.63;68.75;100130.93;106283;1271;22734;-79
2022/07/14 04:58:58;;;;;;;4.40;4.00;;;;;;;18.69;68.65;100129.44;106167;1271;25302;-79
2022/07/14 05:01:25;;;;;;;6.90;4.20;;;;;;;18.73;68.61;100129.23;106365;1271;23140;-84
2022/07/14 05:03:52;;;;;;;6.20;4.30;;;;;;;18.77;68.64;100129.77;106161;1271;22637;-76
2022/07/14 05:06:20;;;;;;;4.20;3.80;;;;;;;18.80;68.48;100128.37;106277;1272;25258;-81
2022/07/14 05:08:47;;;;;;;4.90;4.10;;;;;;;18.85;68.36;100129.73;106497;1271;22558;-77
2022/07/14 05:11:14;;;;;;;5.70;3.90;;;;;;;18.90;68.31;100131.11;105954;1277;25651;-80
2022/07/14 05:13:42;;;;;;;3.70;3.30;;;;;;;18.95;67.92;100132.33;105841;1278;22558;-80
2022/07/14 05:16:09;;;;;;;5.80;3.50;;;;;;;19.00;67.66;100130.84;105866;1277;22745;-81
2022/07/14 05:18:36;;;;;;;3.40;3.10;;;;;;;19.04;67.46;100132.23;106117;1277;24400;-78
2022/07/14 05:21:04;;;;;;;4.60;3.60;;;;;;;19.09;67.17;100128.62;106074;1276;24233;-81
2022/07/14 05:23:31;;;;;;;5.20;3.40;;;;;;;19.16;67.02;100135.45;107457;1274;22566;-81
2022/07/14 05:25:59;;;;;;;7.90;3.80;;;;;;;19.20;66.93;100135.08;108296;1274;22633;-78
2022/07/14 05:28:26;;;;;;;4.90;3.30;;;;;;;19.26;66.85;100134.95;107445;1282;22570;-78
2022/07/14 05:30:57;;;;;;;3.10;2.80;;;;;;;19.29;66.44;100133.88;106835;1278;22545;-78
2022/07/14 05:33:36;;;;;;;3.30;3.00;;;;;;;19.35;66.30;100135.02;106620;1281;25261;-79
2022/07/14 05:36:05;;;;;;;3.50;2.40;;;;;;;19.40;65.70;100138.18;107039;1280;22699;-80
2022/07/14 05:38:33;;;;;;;3.70;2.50;;;;;;;19.42;65.36;100148.96;106692;1284;22593;-80
2022/07/14 05:41:01;;;;;;;6.50;3.50;;;;;;;19.46;65.50;100152.03;106188;1284;25321;-80
2022/07/14 05:43:29;;;;;;;6.60;3.60;;;;;;;19.49;65.45;100155.98;105248;1284;26539;-85
2022/07/14 05:46:03;;;;;;;6.20;4.30;;;;;;;19.47;65.22;100153.02;105353;1278;22821;-83
2022/07/14 05:48:31;;;;;;;5.30;4.00;;;;;;;19.45;65.34;100154.02;105750;1277;24436;-84
2022/07/14 05:51:13;;;;;;;4.10;3.50;;;;;;;19.46;65.52;100151.32;105735;1278;22668;-81
2022/07/14 05:53:45;;;;;;;5.90;3.90;;;;;;;19.47;65.61;100143.94;106001;1278;25433;-81
2022/07/14 05:56:16;;;;;;;9.90;4.50;;;;;;;19.51;65.48;100148.16;105802;1274;25597;-82
2022/07/14 05:58:46;;;;;;;7.00;3.90;;;;;;;19.56;65.41;100152.03;105797;1277;25259;-80
2022/07/14 06:01:15;;;;;;;7.30;4.10;;;;;;;19.63;65.48;100154.89;105748;1278;22631;-82
2022/07/14 06:03:43;;;;;;;5.20;3.50;;;;;;;19.71;65.22;100159.70;105730;1278;26703;-81
2022/07/14 06:06:10;;;;;;;8.40;4.00;;;;;;;19.75;64.65;100163.73;105922;1276;25313;-81
2022/07/14 06:08:37;;;;;;;4.80;3.70;;;;;;;19.78;64.46;100161.80;105785;1277;22532;-86
2022/07/14 06:11:04;;;;;;;4.60;3.60;;;;;;;19.82;64.35;100160.57;105865;1277;23963;-81
2022/07/14 06:13:32;;;;;;;5.30;2.90;;;;;;;19.84;64.22;100160.08;105993;1277;23599;-80
2022/07/14 06:16:00;;;;;;;7.80;4.20;;;;;;;19.84;63.97;100160.28;105862;1277;26883;-80
2022/07/14 06:18:28;;;;;;;5.50;3.20;;;;;;;19.83;64.00;100157.67;107013;1271;22679;-80
2022/07/14 06:20:59;;;;;;;9.30;3.80;;;;;;;19.85;64.05;100156.83;109685;1271;22933;-80
2022/07/14 06:23:26;;;;;;;4.60;2.70;;;;;;;19.88;63.89;100155.43;109167;1271;22778;-79
2022/07/14 06:25:54;;;;;;;3.70;2.80;;;;;;;19.91;63.75;100155.08;109050;1273;22525;-79
2022/07/14 06:28:26;;;;;;;3.70;2.80;;;;;;;19.92;63.55;100153.43;109615;1273;22492;-79
2022/07/14 06:30:55;;;;;;;6.80;2.70;;;;;;;19.94;63.28;100148.89;109451;1271;22589;-80
2022/07/14 06:33:22;;;;;;;8.40;3.20;;;;;;;20.01;63.46;100152.25;109458;1271;22564;-81
2022/07/14 06:35:51;;;;;;;7.60;2.60;;;;;;;20.08;63.50;100154.97;109283;1271;23086;-80
2022/07/14 06:38:35;;;;;;;4.50;2.80;;;;;;;20.15;63.17;100152.60;107320;1271;25356;-77
2022/07/14 06:41:02;;;;;;;4.20;2.70;;;;;;;20.21;62.83;100150.52;106852;1271;283918;-79
2022/07/14 06:43:32;;;;;;;3.60;2.30;;;;;;;20.21;61.51;100152.29;107102;1271;22898;-78
2022/07/14 06:46:07;;;;;;;3.30;2.40;;;;;;;20.22;61.60;100150.27;106846;1273;22618;-81
2022/07/14 06:48:34;;;;;;;4.10;2.10;;;;;;;20.25;61.67;100158.16;106902;1271;25371;-80
2022/07/14 06:51:03;;;;;;;4.50;2.40;;;;;;;20.29;61.73;100157.63;106390;1271;22475;-82
2022/07/14 06:53:31;;;;;;;4.40;2.40;;;;;;;20.32;61.46;100154.24;106191;1272;22698;-82
2022/07/14 06:55:58;;;;;;;3.50;2.20;;;;;;;20.34;61.06;100157.54;106353;1271;22539;-80
2022/07/14 06:58:25;;;;;;;3.00;2.00;;;;;;;20.35;61.00;100159.78;106114;1272;22543;-80
2022/07/14 07:00:52;;;;;;;5.10;2.20;;;;;;;20.38;61.18;100159.13;106275;1271;24409;-80
2022/07/14 07:03:19;;;;;;;10.50;2.20;;;;;;;20.40;61.28;100155.20;106266;1271;22611;-79
2022/07/14 07:08:32;;;;;;;4.20;2.20;;;;;;;20.49;60.66;100153.84;106159;1273;24292;-80
2022/07/14 07:10:58;;;;;;;6.50;2.10;;;;;;;20.52;60.17;100149.77;106225;1271;22650;-79
2022/07/14 07:13:29;;;;;;;3.60;1.90;;;;;;;20.54;60.16;100149.33;106251;1271;25255;-77
2022/07/14 07:15:57;;;;;;;2.70;2.10;;;;;;;20.59;60.36;100149.36;106448;1271;25261;-84
2022/07/14 07:18:24;;;;;;;4.00;1.90;;;;;;;20.69;60.29;100148.81;105945;1271;23061;-80
2022/07/14 07:20:52;;;;;;;3.10;2.60;;;;;;;20.77;60.17;100144.46;106153;1273;24218;-79
2022/07/14 07:23:19;;;;;;;5.40;2.00;;;;;;;20.81;59.57;100142.30;106452;1274;22567;-80
2022/07/14 07:25:46;;;;;;;1.70;1.40;;;;;;;20.83;58.42;100139.88;106767;1272;23885;-80
2022/07/14 07:28:13;;;;;;;3.50;1.60;;;;;;;20.86;58.37;100133.23;106365;1269;24266;-81
2022/07/14 07:30:40;;;;;;;2.20;1.80;;;;;;;20.93;58.40;100134.50;106340;1271;22533;-81
2022/07/14 07:33:08;;;;;;;4.20;1.80;;;;;;;20.98;58.29;100141.73;106293;1274;24241;-82
2022/07/14 07:35:35;;;;;;;2.40;1.90;;;;;;;21.03;57.87;100141.23;106407;1272;25307;-80
2022/07/14 07:38:06;;;;;;;3.60;1.80;;;;;;;21.12;57.37;100143.61;107444;1272;25261;-82
2022/07/14 07:40:33;;;;;;;1.60;1.50;;;;;;;21.17;57.17;100139.25;106366;1273;24399;-80
2022/07/14 07:43:00;;;;;;;3.30;1.40;;;;;;;21.20;56.52;100133.88;106154;1271;23188;-82
2022/07/14 07:45:27;;;;;;;1.80;1.50;;;;;;;21.30;56.21;100136.89;106179;1271;22542;-79
2022/07/14 07:47:54;;;;;;;2.40;1.80;;;;;;;21.36;56.41;100138.13;106294;1271;22576;-83
2022/07/14 07:50:21;;;;;;;4.00;1.50;;;;;;;21.44;55.57;100137.50;106007;1271;25319;-79
2022/07/14 07:52:49;;;;;;;5.60;1.60;;;;;;;21.46;54.67;100137.19;106124;1271;22550;-79
2022/07/14 07:55:15;;;;;;;2.00;1.40;;;;;;;21.50;54.25;100135.86;106224;1271;22786;-81
2022/07/14 07:57:52;;;;;;;1.70;1.30;;;;;;;21.46;54.10;100134.85;106312;1271;24239;-81
2022/07/14 08:00:21;;;;;;;3.30;1.40;;;;;;;21.49;54.55;100134.69;106181;1271;25241;-80
2022/07/14 08:02:52;;;;;;;2.20;1.80;;;;;;;21.58;54.82;100134.36;106301;1271;25368;-83
2022/07/14 08:05:23;;;;;;;2.10;1.30;;;;;;;21.66;54.66;100131.92;106253;1271;22542;-81
2022/07/14 08:08:11;;;;;;;1.90;1.40;;;;;;;21.72;54.57;100133.33;106141;1271;22677;-80
2022/07/14 08:10:39;;;;;;;3.80;1.20;;;;;;;21.74;53.78;100130.92;106232;1271;26572;-80
2022/07/14 08:13:07;;;;;;;3.10;1.30;;;;;;;21.83;52.52;100142.20;106260;1271;22572;-80
2022/07/14 08:15:34;;;;;;;1.40;1.10;;;;;;;21.89;51.46;100144.38;106178;1271;22471;-83
2022/07/14 08:18:02;;;;;;;3.40;1.40;;;;;;;21.95;51.39;100144.20;106235;1271;24265;-80
2022/07/14 08:20:29;;;;;;;1.70;1.00;;;;;;;22.01;50.73;100137.55;106221;1271;22578;-81
2022/07/14 08:22:57;;;;;;;4.80;1.60;;;;;;;22.02;50.50;100145.77;106119;1271;24237;-81
2022/07/14 08:25:24;;;;;;;2.80;1.60;;;;;;;22.08;50.45;100146.81;106261;1271;24130;-81
2022/07/14 08:27:52;;;;;;;1.50;1.40;;;;;;;22.16;50.10;100145.79;106023;1271;22638;-82
2022/07/14 08:30:20;;;;;;;2.80;1.50;;;;;;;22.20;50.22;100142.88;106057;1272;22526;-81
2022/07/14 08:32:50;;;;;;;2.40;1.40;;;;;;;22.23;50.72;100146.25;106273;1271;26521;-80
2022/07/14 08:35:23;;;;;;;2.40;1.70;;;;;;;22.35;49.88;100148.93;106285;1271;25451;-81
2022/07/14 08:37:51;;;;;;;7.30;1.30;;;;;;;22.45;49.47;100143.79;106246;1271;25456;-82
2022/07/14 08:40:20;;;;;;;2.00;1.50;;;;;;;22.56;49.16;100144.02;106230;1271;23935;-83
2022/07/14 08:42:50;;;;;;;2.40;1.50;;;;;;;22.63;48.61;100138.98;106339;1271;25592;-82
2022/07/14 08:45:21;;;;;;;2.60;1.20;;;;;;;22.77;48.79;100139.68;106260;1273;22552;-79
2022/07/14 08:47:50;;;;;;;2.30;1.30;;;;;;;22.86;48.26;100141.31;106291;1271;22557;-82
2022/07/14 08:50:20;;;;;;;2.70;1.40;;;;;;;22.93;47.88;100143.86;106151;1272;24772;-82
2022/07/14 08:52:48;;;;;;;2.10;1.20;;;;;;;23.05;47.15;100141.84;106322;1271;25572;-82
2022/07/14 08:55:17;;;;;;;3.60;1.40;;;;;;;23.16;46.69;100146.90;106147;1273;22562;-81
2022/07/14 08:57:44;;;;;;;2.30;1.20;;;;;;;23.21;46.38;100142.80;106368;1271;24264;-79
2022/07/14 09:00:15;;;;;;;1.90;1.30;;;;;;;23.25;45.76;100149.15;106520;1271;22545;-80
2022/07/14 09:02:51;;;;;;;4.40;1.60;;;;;;;23.30;45.73;100145.59;106547;1271;22544;-78
2022/07/14 09:05:43;;;;;;;3.10;1.40;;;;;;;23.43;44.34;100154.11;106392;1271;22606;-80
2022/07/14 09:08:11;;;;;;;3.30;1.30;;;;;;;23.39;43.95;100157.07;106298;1272;22537;-80
2022/07/14 09:10:41;;;;;;;2.10;1.20;;;;;;;23.32;43.87;100152.67;106454;1271;25241;-81
2022/07/14 09:13:31;;;;;;;2.60;1.20;;;;;;;23.34;44.13;100146.39;106374;1271;22544;-85
2022/07/14 09:16:19;;;;;;;2.30;1.20;;;;;;;23.35;43.92;100146.52;106380;1271;24091;-82
2022/07/14 09:19:06;;;;;;;2.30;1.50;;;;;;;23.47;43.96;100148.98;106565;1271;24190;-83
2022/07/14 09:21:35;;;;;;;2.50;1.40;;;;;;;23.56;43.69;100156.50;106293;1271;22974;-80
2022/07/14 09:24:05;;;;;;;3.40;1.10;;;;;;;23.56;43.62;100151.83;105866;1279;22879;-81
2022/07/14 09:26:41;;;;;;;3.30;1.60;;;;;;;23.56;43.59;100145.35;106013;1279;23014;-83
2022/07/14 09:29:16;;;;;;;3.70;1.50;;;;;;;23.64;43.65;100147.33;106554;1277;25361;-81
2022/07/14 09:31:43;;;;;;;2.90;1.70;;;;;;;23.69;43.91;100146.47;108197;1284;22800;-82
2022/07/14 09:34:26;;;;;;;1.80;1.20;;;;;;;23.70;44.46;100147.80;108128;1284;22935;-82
2022/07/14 09:37:16;;;;;;;2.50;1.40;;;;;;;23.78;44.66;100154.46;108626;1284;22540;-81
2022/07/14 09:39:58;;;;;;;3.20;1.40;;;;;;;23.68;44.10;100147.02;108595;1284;22681;-81
2022/07/14 09:42:58;;;;;;;3.80;1.90;;;;;;;23.68;43.54;100142.01;108731;1279;22752;-81
2022/07/14 09:45:51;;;;;;;2.10;1.70;;;;;;;23.73;43.51;100144.01;109235;1278;22585;-81
2022/07/14 09:48:20;;;;;;;3.50;2.30;;;;;;;23.62;43.63;100150.13;107314;1279;23110;-82
2022/07/14 09:50:54;;;;;;;3.30;1.50;;;;;;;23.59;43.62;100143.54;107341;1271;24243;-82
2022/07/14 09:53:27;;;;;;;5.10;2.50;;;;;;;23.69;43.22;100146.09;107342;1271;24262;-81
2022/07/14 09:56:01;;;;;;;3.60;2.00;;;;;;;23.74;42.45;100142.17;107210;1271;22544;-80
2022/07/14 09:58:31;;;;;;;9.50;5.90;;;;;;;23.84;42.27;100137.88;107798;1271;22542;-80
2022/07/14 10:01:10;;;;;;;6.10;3.50;;;;;;;24.03;40.81;100153.30;107812;1271;22536;-81
2022/07/14 10:03:40;;;;;;;1.80;1.70;;;;;;;24.12;40.24;100143.69;108038;1271;23313;-80
2022/07/14 10:06:11;;;;;;;2.80;1.30;;;;;;;24.23;39.60;100139.02;108881;1270;22575;-80
2022/07/14 10:08:59;;;;;;;8.00;1.30;;;;;;;24.25;37.22;100135.06;108147;1271;22550;-82
2022/07/14 10:11:29;;;;;;;1.80;1.00;;;;;;;24.31;37.23;100143.33;107729;1271;25350;-79
2022/07/14 10:13:58;;;;;;;5.10;1.10;;;;;;;24.37;35.60;100139.28;108508;1271;23098;-79
2022/07/14 10:16:35;;;;;;;2.80;1.30;;;;;;;24.43;35.41;100138.68;108587;1271;25381;-80
2022/07/14 10:19:04;;;;;;;1.80;1.00;;;;;;;24.56;34.41;100141.16;107541;1271;22515;-82
2022/07/14 10:21:43;;;;;;;3.30;1.10;;;;;;;24.65;33.11;100145.23;106965;1276;23064;-84
2022/07/14 10:24:11;;;;;;;3.70;1.00;;;;;;;24.65;32.07;100145.05;106872;1276;22539;-81
2022/07/14 10:26:38;;;;;;;3.20;0.80;;;;;;;24.63;32.22;100143.23;107456;1276;22970;-85
2022/07/14 10:29:07;;;;;;;4.00;0.80;;;;;;;24.68;32.97;100141.95;107502;1276;22756;-82
2022/07/14 10:31:55;;;;;;;2.90;1.00;;;;;;;24.80;32.35;100137.30;106488;1282;23955;-82
2022/07/14 10:34:39;;;;;;;3.20;1.40;;;;;;;24.88;31.73;100131.90;106481;1282;24248;-82
2022/07/14 10:37:20;;;;;;;3.90;1.10;;;;;;;24.99;32.22;100135.59;106108;1282;25560;-80
2022/07/14 10:40:15;;;;;;;2.80;1.20;;;;;;;25.16;31.56;100133.44;106177;1279;22532;-80
2022/07/14 10:43:12;;;;;;;2.60;1.20;;;;;;;25.24;31.77;100124.91;106033;1279;24223;-82
2022/07/14 10:45:51;;;;;;;1.60;1.20;;;;;;;25.29;32.39;100129.05;106817;1277;22578;-83
2022/07/14 10:48:37;;;;;;;1.30;1.10;;;;;;;25.31;32.45;100128.94;106461;1278;25265;-81
2022/07/14 10:51:22;;;;;;;;;;;;;;;25.35;32.66;100130.58;107059;1271;24237;-81
2022/07/14 10:53:59;;;;;;;2.50;1.40;;;;;;;25.46;32.83;100122.73;106545;1273;25667;-81
2022/07/14 10:56:46;;;;;;;4.40;1.80;;;;;;;25.69;32.13;100130.36;106662;1273;22529;-81
2022/07/14 10:59:26;;;;;;;3.10;1.60;;;;;;;25.68;32.18;100133.56;106579;1271;24267;-82
2022/07/14 11:02:12;;;;;;;2.60;1.70;;;;;;;25.67;32.58;100128.04;106680;1271;24326;-81
2022/07/14 11:04:58;;;;;;;3.40;1.40;;;;;;;25.73;32.75;100133.19;106628;1271;22686;-84
2022/07/14 11:07:46;;;;;;;3.60;1.60;;;;;;;25.86;32.48;100134.37;106119;1276;22541;-82
2022/07/14 11:10:16;;;;;;;3.60;1.80;;;;;;;25.99;32.50;100128.81;106330;1277;24296;-84
2022/07/14 11:13:05;;;;;;;3.70;1.70;;;;;;;26.07;32.18;100123.30;106394;1276;22568;-82
2022/07/14 11:15:40;;;;;;;5.20;1.90;;;;;;;26.28;32.29;100127.30;106655;1276;22556;-82
2022/07/14 11:18:24;;;;;;;4.60;1.90;;;;;;;26.35;31.98;100128.38;106717;1276;26523;-82
2022/07/14 11:21:08;;;;;;;3.10;1.50;;;;;;;26.36;31.28;100125.46;106216;1276;25370;-82
2022/07/14 11:23:49;;;;;;;;;;;;;;;26.13;31.66;100130.81;106423;1276;25781;-83
2022/07/14 11:26:31;;;;;;;2.40;1.60;;;;;;;26.15;31.80;100129.59;106337;1276;22769;-84
2022/07/14 11:28:59;;;;;;;4.60;1.80;;;;;;;26.27;31.28;100127.72;106206;1276;24252;-84
2022/07/14 11:31:27;;;;;;;6.00;2.10;;;;;;;26.34;30.77;100127.16;106316;1271;22525;-83
2022/07/14 11:37:04;;;;;;;3.20;1.50;;;;;;;26.38;30.67;100121.64;106338;1271;25403;-83
2022/07/14 11:39:50;;;;;;;5.20;1.90;;;;;;;26.40;31.22;100119.10;106312;1271;22679;-82
2022/07/14 11:42:17;;;;;;;4.50;1.90;;;;;;;26.58;30.79;100118.45;106407;1271;23998;-82
2022/07/14 11:44:50;;;;;;;2.40;1.50;;;;;;;26.73;31.40;100118.50;106330;1272;22542;-80